createdAt,value
2018-03-21T00:00:10.701Z,0
2018-03-21T00:01:20.836Z,0
2018-03-21T00:02:30.974Z,0
2018-03-21T00:03:40.597Z,0
2018-03-21T00:04:50.483Z,0
2018-03-21T00:06:00.237Z,0
2018-03-21T00:07:10.275Z,0
2018-03-21T00:08:20.415Z,0
2018-03-21T00:09:31.599Z,0
2018-03-21T00:10:41.574Z,0
2018-03-21T00:11:51.713Z,0
2018-03-21T00:13:01.841Z,0
2018-03-21T00:14:12.965Z,0
2018-03-21T00:15:22.823Z,0
2018-03-21T00:16:32.944Z,0
2018-03-21T00:17:43.119Z,0
2018-03-21T00:18:53.337Z,0
2018-03-21T00:20:03.575Z,0
2018-03-21T00:21:12.834Z,0
2018-03-21T00:22:22.975Z,0
2018-03-21T00:23:32.571Z,0
2018-03-21T00:24:42.434Z,0
2018-03-21T00:25:52.745Z,0
2018-03-21T00:27:02.246Z,0
2018-03-21T00:28:12.375Z,0
2018-03-21T00:29:22.202Z,0
2018-03-21T00:30:32.342Z,0
2018-03-21T00:31:42.109Z,0
2018-03-21T00:32:52.175Z,0
2018-03-21T00:34:02.496Z,0
2018-03-21T00:35:12.249Z,0
2018-03-21T00:36:22.109Z,0
2018-03-21T00:37:32.256Z,0
2018-03-21T00:38:42.140Z,0
2018-03-21T00:39:52.293Z,0
2018-03-21T00:41:02.418Z,0
2018-03-21T00:42:12.529Z,0
2018-03-21T00:43:22.390Z,0
2018-03-21T00:44:32.519Z,0
2018-03-21T00:45:42.118Z,0
2018-03-21T00:46:52.425Z,0
2018-03-21T00:48:02.663Z,0
2018-03-21T00:49:12.838Z,0
2018-03-21T00:50:22.690Z,0
2018-03-21T00:51:32.857Z,0
2018-03-21T00:52:43.011Z,0
2018-03-21T00:53:52.868Z,0
2018-03-21T00:55:03.955Z,0
2018-03-21T00:56:14.084Z,0
2018-03-21T00:57:23.938Z,0
2018-03-21T00:58:34.091Z,0
2018-03-21T00:59:44.363Z,0
2018-03-21T01:00:54.610Z,0
2018-03-21T01:02:04.399Z,0
2018-03-21T01:03:14.556Z,0
2018-03-21T01:04:24.439Z,0
2018-03-21T01:05:34.577Z,0
2018-03-21T01:06:44.833Z,0
2018-03-21T01:07:55.906Z,0
2018-03-21T01:09:06.176Z,0
2018-03-21T01:10:16.041Z,0
2018-03-21T01:11:26.179Z,0
2018-03-21T01:12:36.295Z,0
2018-03-21T01:13:46.423Z,0
2018-03-21T01:14:56.583Z,0
2018-03-21T01:16:06.774Z,0
2018-03-21T01:17:16.909Z,0
2018-03-21T01:18:27.011Z,0
2018-03-21T01:19:37.837Z,0
2018-03-21T01:20:47.740Z,0
2018-03-21T01:21:57.633Z,0
2018-03-21T01:23:07.762Z,0
2018-03-21T01:24:17.901Z,0
2018-03-21T01:25:28.014Z,0
2018-03-21T01:26:37.318Z,0
2018-03-21T01:27:47.240Z,0
2018-03-21T01:28:56.726Z,0
2018-03-21T01:30:06.765Z,0
2018-03-21T01:31:16.948Z,0
2018-03-21T01:32:27.095Z,0
2018-03-21T01:33:36.984Z,0
2018-03-21T01:34:47.174Z,0
2018-03-21T01:35:57.294Z,0
2018-03-21T01:37:07.549Z,0
2018-03-21T01:38:17.723Z,0
2018-03-21T01:39:28.008Z,0
2018-03-21T01:40:38.209Z,0
2018-03-21T01:41:49.398Z,0
2018-03-21T01:42:59.242Z,0
2018-03-21T01:44:08.841Z,0
2018-03-21T01:45:18.374Z,0
2018-03-21T01:46:28.332Z,0
2018-03-21T01:47:38.584Z,0
2018-03-21T01:48:48.727Z,0
2018-03-21T01:49:58.901Z,0
2018-03-21T01:51:08.840Z,0
2018-03-21T01:52:18.626Z,0
2018-03-21T01:53:28.506Z,0
2018-03-21T01:54:38.306Z,0
2018-03-21T01:55:48.430Z,0
2018-03-21T01:56:58.292Z,0
2018-03-21T01:58:08.501Z,0
2018-03-21T01:59:18.404Z,0
2018-03-21T02:00:29.496Z,0
2018-03-21T02:01:38.997Z,0
2018-03-21T02:02:49.095Z,0
2018-03-21T02:03:59.354Z,0
2018-03-21T02:05:09.218Z,0
2018-03-21T02:06:18.752Z,0
2018-03-21T02:07:29.029Z,0
2018-03-21T02:08:39.227Z,0
2018-03-21T02:09:49.409Z,0
2018-03-21T02:10:59.252Z,0
2018-03-21T02:12:09.105Z,0
2018-03-21T02:13:19.226Z,0
2018-03-21T02:14:29.403Z,0
2018-03-21T02:15:39.544Z,0
2018-03-21T02:16:49.837Z,0
2018-03-21T02:17:59.586Z,0
2018-03-21T02:19:09.337Z,0
2018-03-21T02:20:19.469Z,0
2018-03-21T02:21:29.215Z,0
2018-03-21T02:22:38.938Z,0
2018-03-21T02:23:49.151Z,0
2018-03-21T02:24:59.285Z,0
2018-03-21T02:26:08.891Z,0
2018-03-21T02:27:18.773Z,0
2018-03-21T02:28:28.651Z,0
2018-03-21T02:29:38.510Z,0
2018-03-21T02:30:48.377Z,0
2018-03-21T02:31:58.247Z,0
2018-03-21T02:33:08.536Z,0
2018-03-21T02:34:18.724Z,0
2018-03-21T02:35:28.913Z,0
2018-03-21T02:36:39.111Z,0
2018-03-21T02:37:49.312Z,0
2018-03-21T02:38:59.490Z,0
2018-03-21T02:40:09.341Z,0
2018-03-21T02:41:19.525Z,0
2018-03-21T02:42:29.047Z,0
2018-03-21T02:43:38.794Z,0
2018-03-21T02:44:49.198Z,0
2018-03-21T02:45:59.408Z,0
2018-03-21T02:47:09.289Z,0
2018-03-21T02:48:19.181Z,0
2018-03-21T02:49:29.099Z,0
2018-03-21T02:50:39.396Z,0
2018-03-21T02:51:49.528Z,0
2018-03-21T02:52:59.740Z,0
2018-03-21T02:54:09.914Z,0
2018-03-21T02:55:19.778Z,0
2018-03-21T02:56:29.906Z,0
2018-03-21T02:57:39.821Z,0
2018-03-21T02:58:49.949Z,0
2018-03-21T03:00:00.105Z,0
2018-03-21T03:01:10.352Z,0
2018-03-21T03:02:20.262Z,0
2018-03-21T03:03:30.368Z,0
2018-03-21T03:04:39.711Z,0
2018-03-21T03:05:49.821Z,0
2018-03-21T03:06:59.714Z,0
2018-03-21T03:08:09.355Z,0
2018-03-21T03:09:19.206Z,0
2018-03-21T03:10:29.325Z,0
2018-03-21T03:11:39.177Z,0
2018-03-21T03:12:48.871Z,0
2018-03-21T03:13:58.750Z,0
2018-03-21T03:15:08.864Z,0
2018-03-21T03:16:18.712Z,0
2018-03-21T03:17:28.822Z,0
2018-03-21T03:18:38.947Z,0
2018-03-21T03:19:48.557Z,0
2018-03-21T03:20:58.166Z,0
2018-03-21T03:22:08.129Z,0
2018-03-21T03:23:17.987Z,0
2018-03-21T03:24:27.573Z,0
2018-03-21T03:25:37.418Z,0
2018-03-21T03:26:47.564Z,0
2018-03-21T03:27:57.672Z,0
2018-03-21T03:29:07.542Z,0
2018-03-21T03:30:17.415Z,0
2018-03-21T03:31:27.553Z,0
2018-03-21T03:32:37.486Z,0
2018-03-21T03:33:47.607Z,0
2018-03-21T03:34:57.462Z,0
2018-03-21T03:36:07.409Z,0
2018-03-21T03:37:17.517Z,0
2018-03-21T03:38:27.385Z,0
2018-03-21T03:39:37.553Z,0
2018-03-21T03:40:47.396Z,0
2018-03-21T03:41:57.537Z,0
2018-03-21T03:43:07.143Z,0
2018-03-21T03:44:17.278Z,0
2018-03-21T03:45:27.143Z,0
2018-03-21T03:46:37.308Z,0
2018-03-21T03:47:47.489Z,0
2018-03-21T03:48:57.736Z,0
2018-03-21T03:50:07.986Z,0
2018-03-21T03:51:18.146Z,0
2018-03-21T03:52:28.015Z,0
2018-03-21T03:53:38.149Z,0
2018-03-21T03:54:48.351Z,0
2018-03-21T03:55:58.522Z,0
2018-03-21T03:57:08.754Z,0
2018-03-21T03:58:18.781Z,0
2018-03-21T03:59:28.908Z,0
2018-03-21T04:00:39.039Z,0
2018-03-21T04:01:48.889Z,0
2018-03-21T04:02:58.967Z,0
2018-03-21T04:04:08.819Z,0
2018-03-21T04:05:18.718Z,0
2018-03-21T04:06:28.343Z,0
2018-03-21T04:07:38.481Z,0
2018-03-21T04:08:48.595Z,0
2018-03-21T04:09:58.551Z,0
2018-03-21T04:11:08.289Z,0
2018-03-21T04:12:18.426Z,0
2018-03-21T04:13:28.056Z,0
2018-03-21T04:14:37.810Z,0
2018-03-21T04:15:47.964Z,0
2018-03-21T04:16:58.358Z,0
2018-03-21T04:18:08.464Z,0
2018-03-21T04:19:18.614Z,0
2018-03-21T04:20:28.766Z,0
2018-03-21T04:21:38.404Z,0
2018-03-21T04:22:48.259Z,0
2018-03-21T04:23:58.514Z,0
2018-03-21T04:25:08.372Z,0
2018-03-21T04:26:18.474Z,0
2018-03-21T04:27:28.733Z,0
2018-03-21T04:28:38.871Z,0
2018-03-21T04:29:49.254Z,0
2018-03-21T04:30:59.131Z,0
2018-03-21T04:32:08.976Z,0
2018-03-21T04:33:18.916Z,0
2018-03-21T04:34:29.140Z,0
2018-03-21T04:35:39.550Z,0
2018-03-21T04:36:49.313Z,0
2018-03-21T04:37:59.471Z,0
2018-03-21T04:39:08.984Z,0
2018-03-21T04:40:19.247Z,0
2018-03-21T04:41:29.430Z,4
2018-03-21T04:42:39.619Z,0
2018-03-21T04:43:50.071Z,0
2018-03-21T04:44:59.920Z,4
2018-03-21T04:46:10.040Z,0
2018-03-21T04:47:20.171Z,4
2018-03-21T04:48:30.287Z,4
2018-03-21T04:49:40.419Z,4
2018-03-21T04:50:50.677Z,8
2018-03-21T04:52:00.560Z,8
2018-03-21T04:53:10.428Z,8
2018-03-21T04:54:20.538Z,8
2018-03-21T04:55:30.418Z,16
2018-03-21T04:56:40.358Z,16
2018-03-21T04:57:50.604Z,20
2018-03-21T04:59:00.606Z,24
2018-03-21T05:00:10.461Z,28
2018-03-21T05:01:20.765Z,32
2018-03-21T05:02:30.637Z,40
2018-03-21T05:03:40.837Z,52
2018-03-21T05:04:50.988Z,60
2018-03-21T05:06:01.205Z,68
2018-03-21T05:07:11.424Z,80
2018-03-21T05:08:21.585Z,88
2018-03-21T05:09:31.496Z,104
2018-03-21T05:10:41.672Z,120
2018-03-21T05:11:51.870Z,136
2018-03-21T05:13:02.069Z,152
2018-03-21T05:14:11.915Z,172
2018-03-21T05:15:22.022Z,196
2018-03-21T05:16:32.255Z,216
2018-03-21T05:17:42.428Z,240
2018-03-21T05:18:52.659Z,268
2018-03-21T05:20:02.928Z,296
2018-03-21T05:21:13.091Z,324
2018-03-21T05:22:22.948Z,352
2018-03-21T05:23:33.084Z,384
2018-03-21T05:24:43.222Z,416
2018-03-21T05:25:53.341Z,448
2018-03-21T05:27:03.480Z,480
2018-03-21T05:28:13.617Z,516
2018-03-21T05:29:23.725Z,552
2018-03-21T05:30:33.871Z,584
2018-03-21T05:31:44.060Z,620
2018-03-21T05:32:53.942Z,660
2018-03-21T05:34:03.798Z,696
2018-03-21T05:35:13.928Z,736
2018-03-21T05:36:25.085Z,772
2018-03-21T05:37:35.260Z,816
2018-03-21T05:38:45.479Z,856
2018-03-21T05:39:55.232Z,900
2018-03-21T05:41:04.823Z,940
2018-03-21T05:42:14.378Z,984
2018-03-21T05:43:24.274Z,1028
2018-03-21T05:44:34.516Z,1072
2018-03-21T05:45:44.863Z,1116
2018-03-21T05:46:54.791Z,1160
2018-03-21T05:48:05.145Z,1208
2018-03-21T05:49:15.297Z,1252
2018-03-21T05:50:24.916Z,1300
2018-03-21T05:51:35.052Z,1340
2018-03-21T05:52:45.225Z,1384
2018-03-21T05:53:55.430Z,1428
2018-03-21T05:55:05.579Z,1476
2018-03-21T05:56:15.733Z,1524
2018-03-21T05:57:25.855Z,1576
2018-03-21T05:58:35.990Z,1636
2018-03-21T05:59:45.624Z,1652
2018-03-21T06:00:55.570Z,1672
2018-03-21T06:02:05.728Z,1700
2018-03-21T06:03:15.584Z,1732
2018-03-21T06:04:25.468Z,1768
2018-03-21T06:05:35.759Z,1800
2018-03-21T06:06:45.937Z,1840
2018-03-21T06:07:56.077Z,1872
2018-03-21T06:09:06.320Z,1900
2018-03-21T06:10:16.272Z,1932
2018-03-21T06:11:26.423Z,1964
2018-03-21T06:12:36.573Z,1992
2018-03-21T06:13:46.444Z,2032
2018-03-21T06:14:56.497Z,2064
2018-03-21T06:16:06.396Z,2092
2018-03-21T06:17:16.266Z,2124
2018-03-21T06:18:26.393Z,2144
2018-03-21T06:19:36.513Z,2172
2018-03-21T06:20:46.645Z,2192
2018-03-21T06:21:56.999Z,2216
2018-03-21T06:23:06.597Z,2240
2018-03-21T06:24:17.433Z,2264
2018-03-21T06:25:27.255Z,2292
2018-03-21T06:26:36.769Z,2308
2018-03-21T06:27:46.352Z,2308
2018-03-21T06:28:56.518Z,2348
2018-03-21T06:30:06.657Z,2368
2018-03-21T06:31:16.424Z,2384
2018-03-21T06:32:25.958Z,2404
2018-03-21T06:33:36.170Z,2428
2018-03-21T06:34:46.332Z,2448
2018-03-21T06:35:56.162Z,2472
2018-03-21T06:37:06.288Z,2492
2018-03-21T06:38:16.145Z,2512
2018-03-21T06:39:26.300Z,2532
2018-03-21T06:40:36.442Z,2552
2018-03-21T06:41:46.689Z,2572
2018-03-21T06:42:56.877Z,2592
2018-03-21T06:44:06.752Z,2612
2018-03-21T06:45:16.978Z,2640
2018-03-21T06:46:26.858Z,2664
2018-03-21T06:47:36.798Z,2688
2018-03-21T06:48:47.012Z,2716
2018-03-21T06:49:57.271Z,2744
2018-03-21T06:51:07.235Z,2776
2018-03-21T06:52:17.356Z,2800
2018-03-21T06:53:27.462Z,2808
2018-03-21T06:54:37.595Z,2836
2018-03-21T06:55:47.746Z,2860
2018-03-21T06:56:57.850Z,2880
2018-03-21T06:58:07.927Z,2896
2018-03-21T06:59:17.192Z,2912
2018-03-21T07:00:27.579Z,2944
2018-03-21T07:01:37.690Z,2968
2018-03-21T07:02:47.857Z,3004
2018-03-21T07:03:58.055Z,3048
2018-03-21T07:05:08.043Z,3108
2018-03-21T07:06:18.174Z,3152
2018-03-21T07:07:27.666Z,3192
2018-03-21T07:08:37.653Z,3236
2018-03-21T07:09:47.928Z,3284
2018-03-21T07:10:58.132Z,3356
2018-03-21T07:12:08.267Z,3428
2018-03-21T07:13:17.767Z,3492
2018-03-21T07:14:27.697Z,3564
2018-03-21T07:15:37.570Z,3660
2018-03-21T07:16:47.713Z,3792
2018-03-21T07:17:57.862Z,3904
2018-03-21T07:19:07.716Z,4024
2018-03-21T07:20:17.577Z,4136
2018-03-21T07:21:27.775Z,4256
2018-03-21T07:22:38.191Z,4360
2018-03-21T07:23:48.421Z,4440
2018-03-21T07:24:58.274Z,4544
2018-03-21T07:26:08.378Z,4628
2018-03-21T07:27:18.540Z,4712
2018-03-21T07:28:28.424Z,4780
2018-03-21T07:29:38.300Z,4856
2018-03-21T07:30:49.426Z,4940
2018-03-21T07:31:58.414Z,5036
2018-03-21T07:33:08.712Z,5116
2018-03-21T07:34:18.987Z,5192
2018-03-21T07:35:28.837Z,5268
2018-03-21T07:36:38.431Z,5332
2018-03-21T07:37:48.309Z,5384
2018-03-21T07:38:58.444Z,5448
2018-03-21T07:40:08.664Z,5500
2018-03-21T07:41:18.567Z,5552
2018-03-21T07:42:28.684Z,5544
2018-03-21T07:43:38.873Z,5508
2018-03-21T07:44:48.667Z,5656
2018-03-21T07:45:58.277Z,5704
2018-03-21T07:47:08.132Z,5760
2018-03-21T07:48:18.000Z,5784
2018-03-21T07:49:28.434Z,5816
2018-03-21T07:50:38.610Z,5868
2018-03-21T07:51:48.216Z,5900
2018-03-21T07:52:58.115Z,5972
2018-03-21T07:54:07.966Z,5988
2018-03-21T07:55:17.822Z,5948
2018-03-21T07:56:27.688Z,6052
2018-03-21T07:57:37.014Z,6148
2018-03-21T07:58:46.991Z,6188
2018-03-21T07:59:56.506Z,6316
2018-03-21T08:01:06.370Z,6548
2018-03-21T08:02:16.520Z,6784
2018-03-21T08:03:26.692Z,7124
2018-03-21T08:04:36.218Z,7608
2018-03-21T08:05:46.398Z,9220
2018-03-21T08:06:56.506Z,17184
2018-03-21T08:08:06.728Z,26176
2018-03-21T08:09:16.762Z,30464
2018-03-21T08:10:26.912Z,32384
2018-03-21T08:11:36.797Z,30528
2018-03-21T08:12:46.602Z,25568
2018-03-21T08:13:55.962Z,26272
2018-03-21T08:15:05.896Z,28256
2018-03-21T08:16:15.779Z,30464
2018-03-21T08:17:25.885Z,35680
2018-03-21T08:18:35.503Z,34976
2018-03-21T08:19:45.468Z,37024
2018-03-21T08:20:55.091Z,42624
2018-03-21T08:22:05.255Z,44096
2018-03-21T08:23:15.424Z,45408
2018-03-21T08:24:25.521Z,44192
2018-03-21T08:25:35.638Z,42912
2018-03-21T08:26:45.813Z,45184
2018-03-21T08:27:55.744Z,42432
2018-03-21T08:29:06.074Z,47936
2018-03-21T08:30:16.046Z,45152
2018-03-21T08:31:25.842Z,42784
2018-03-21T08:32:35.776Z,43360
2018-03-21T08:33:45.906Z,46016
2018-03-21T08:34:55.776Z,46944
2018-03-21T08:36:05.403Z,44864
2018-03-21T08:37:15.307Z,41632
2018-03-21T08:38:25.271Z,36576
2018-03-21T08:39:35.419Z,32736
2018-03-21T08:40:45.081Z,30144
2018-03-21T08:41:55.277Z,34400
2018-03-21T08:43:05.093Z,33920
2018-03-21T08:44:14.990Z,34240
2018-03-21T08:45:25.142Z,37312
2018-03-21T08:46:35.025Z,38368
2018-03-21T08:47:45.173Z,40384
2018-03-21T08:48:55.110Z,47296
2018-03-21T08:50:05.341Z,46976
2018-03-21T08:51:15.474Z,44640
2018-03-21T08:52:25.664Z,40096
2018-03-21T08:53:35.613Z,43584
2018-03-21T08:54:45.810Z,41312
2018-03-21T08:55:56.031Z,43424
2018-03-21T08:57:06.221Z,37184
2018-03-21T08:58:16.406Z,44960
2018-03-21T08:59:26.580Z,46464
2018-03-21T09:00:36.845Z,47104
2018-03-21T09:01:46.507Z,47232
2018-03-21T09:02:56.227Z,49856
2018-03-21T09:04:06.208Z,46976
2018-03-21T09:05:16.396Z,46240
2018-03-21T09:06:26.556Z,53312
2018-03-21T09:07:36.499Z,52576
2018-03-21T09:08:46.422Z,50400
2018-03-21T09:09:56.309Z,46336
2018-03-21T09:11:06.465Z,44064
2018-03-21T09:12:16.068Z,45824
2018-03-21T09:13:25.950Z,51040
2018-03-21T09:14:36.093Z,54240
2018-03-21T09:15:45.987Z,53600
2018-03-21T09:16:56.115Z,55808
2018-03-21T09:18:06.393Z,50848
2018-03-21T09:19:16.514Z,53504
2018-03-21T09:20:26.446Z,54848
2018-03-21T09:21:36.366Z,49408
2018-03-21T09:22:45.972Z,49824
2018-03-21T09:23:56.100Z,55008
2018-03-21T09:25:06.316Z,56992
2018-03-21T09:26:16.516Z,60576
2018-03-21T09:27:26.191Z,55360
2018-03-21T09:28:36.392Z,48224
2018-03-21T09:29:46.578Z,52832
2018-03-21T09:30:56.461Z,56480
2018-03-21T09:32:06.411Z,52128
2018-03-21T09:33:16.314Z,57024
2018-03-21T09:34:25.965Z,67808
2018-03-21T09:35:36.130Z,63744
2018-03-21T09:36:46.020Z,58048
2018-03-21T09:37:55.900Z,56096
2018-03-21T09:39:05.936Z,47840
2018-03-21T09:40:15.868Z,57632
2018-03-21T09:41:26.019Z,58464
2018-03-21T09:42:36.160Z,61952
2018-03-21T09:43:46.048Z,58624
2018-03-21T09:44:56.251Z,53056
2018-03-21T09:46:06.385Z,64704
2018-03-21T09:47:16.548Z,56576
2018-03-21T09:48:26.710Z,55744
2018-03-21T09:49:36.966Z,62080
2018-03-21T09:50:46.490Z,55456
2018-03-21T09:51:56.637Z,59520
2018-03-21T09:53:06.795Z,63008
2018-03-21T09:54:16.933Z,66464
2018-03-21T09:55:26.567Z,69248
2018-03-21T09:56:36.461Z,65280
2018-03-21T09:57:47.194Z,61792
2018-03-21T09:58:59.433Z,67328
2018-03-21T10:00:11.755Z,67616
2018-03-21T10:01:21.937Z,68384
2018-03-21T10:02:33.285Z,62656
2018-03-21T10:03:43.640Z,54208
2018-03-21T10:04:54.265Z,51616
2018-03-21T10:06:04.416Z,58912
2018-03-21T10:07:15.470Z,63680
2018-03-21T10:08:25.769Z,62496
2018-03-21T10:09:35.992Z,62912
2018-03-21T10:10:45.887Z,60256
2018-03-21T10:11:56.045Z,58432
2018-03-21T10:13:06.194Z,61952
2018-03-21T10:14:16.402Z,65984
2018-03-21T10:15:26.653Z,57856
2018-03-21T10:16:36.927Z,58592
2018-03-21T10:17:47.145Z,64000
2018-03-21T10:18:57.324Z,63488
2018-03-21T10:20:07.482Z,59936
2018-03-21T10:21:17.738Z,66272
2018-03-21T10:22:27.915Z,61792
2018-03-21T10:23:38.146Z,66368
2018-03-21T10:24:48.354Z,68160
2018-03-21T10:25:58.542Z,73184
2018-03-21T10:27:08.676Z,78560
2018-03-21T10:28:20.024Z,81344
2018-03-21T10:29:30.726Z,66688
2018-03-21T10:30:40.625Z,55872
2018-03-21T10:31:50.833Z,51680
2018-03-21T10:33:00.741Z,56352
2018-03-21T10:34:10.907Z,57120
2018-03-21T10:35:21.068Z,62144
2018-03-21T10:36:31.230Z,56224
2018-03-21T10:37:41.111Z,46496
2018-03-21T10:38:51.127Z,54304
2018-03-21T10:40:01.312Z,56896
2018-03-21T10:41:11.555Z,48896
2018-03-21T10:42:21.718Z,50336
2018-03-21T10:43:31.939Z,55040
2018-03-21T10:44:41.762Z,49024
2018-03-21T10:45:51.731Z,43392
2018-03-21T10:47:01.920Z,48128
2018-03-21T10:48:12.116Z,51584
2018-03-21T10:49:22.272Z,50624
2018-03-21T10:50:32.410Z,55008
2018-03-21T10:51:42.584Z,58592
2018-03-21T10:52:52.776Z,54176
2018-03-21T10:54:03.010Z,53248
2018-03-21T10:55:13.267Z,56160
2018-03-21T10:56:23.488Z,54944
2018-03-21T10:57:33.671Z,47808
2018-03-21T10:58:43.858Z,52000
2018-03-21T10:59:54.058Z,53728
2018-03-21T11:01:04.242Z,56352
2018-03-21T11:02:14.543Z,57152
2018-03-21T11:03:24.478Z,52672
2018-03-21T11:04:34.706Z,50816
2018-03-21T11:05:44.593Z,59584
2018-03-21T11:06:54.767Z,62272
2018-03-21T11:08:04.933Z,60448
2018-03-21T11:09:15.167Z,69216
2018-03-21T11:10:25.316Z,69088
2018-03-21T11:11:35.250Z,57440
2018-03-21T11:12:45.156Z,62752
2018-03-21T11:13:55.333Z,57504
2018-03-21T11:15:05.577Z,54560
2018-03-21T11:16:15.725Z,53760
2018-03-21T11:17:25.956Z,51968
2018-03-21T11:18:35.858Z,61440
2018-03-21T11:19:45.992Z,64864
2018-03-21T11:20:56.181Z,56736
2018-03-21T11:22:05.956Z,63744
2018-03-21T11:23:17.060Z,76960
2018-03-21T11:24:27.335Z,74880
2018-03-21T11:25:37.544Z,68128
2018-03-21T11:26:47.361Z,68864
2018-03-21T11:27:57.618Z,72320
2018-03-21T11:29:07.803Z,68000
2018-03-21T11:30:17.676Z,68768
2018-03-21T11:31:27.697Z,63040
2018-03-21T11:32:37.939Z,56448
2018-03-21T11:33:48.180Z,59232
2018-03-21T11:34:58.446Z,57888
2018-03-21T11:36:08.622Z,49760
2018-03-21T11:37:18.867Z,60224
2018-03-21T11:38:29.059Z,64576
2018-03-21T11:39:39.261Z,61696
2018-03-21T11:40:49.466Z,63456
2018-03-21T11:41:59.651Z,66560
2018-03-21T11:43:09.826Z,56992
2018-03-21T11:44:19.736Z,53824
2018-03-21T11:45:29.896Z,58368
2018-03-21T11:46:39.796Z,65152
2018-03-21T11:47:49.975Z,56352
2018-03-21T11:49:00.126Z,58400
2018-03-21T11:50:10.267Z,65568
2018-03-21T11:51:20.250Z,67424
2018-03-21T11:52:30.382Z,65760
2018-03-21T11:53:40.524Z,58112
2018-03-21T11:54:50.684Z,57760
2018-03-21T11:56:00.852Z,71712
2018-03-21T11:57:10.631Z,67392
2018-03-21T11:58:20.825Z,50784
2018-03-21T11:59:31.063Z,48384
2018-03-21T12:00:40.986Z,65664
2018-03-21T12:01:50.920Z,80960
2018-03-21T12:03:00.761Z,75040
2018-03-21T12:04:10.484Z,64576
2018-03-21T12:05:20.657Z,65920
2018-03-21T12:06:30.813Z,62240
2018-03-21T12:07:41.190Z,69376
2018-03-21T12:08:51.425Z,77408
2018-03-21T12:10:01.658Z,74560
2018-03-21T12:11:11.868Z,71712
2018-03-21T12:12:21.751Z,65888
2018-03-21T12:13:31.902Z,68032
2018-03-21T12:14:42.147Z,77088
2018-03-21T12:15:52.163Z,63072
2018-03-21T12:17:02.165Z,56512
2018-03-21T12:18:12.336Z,79104
2018-03-21T12:19:22.150Z,85984
2018-03-21T12:20:31.947Z,76384
2018-03-21T12:21:41.865Z,76032
2018-03-21T12:22:52.267Z,77056
2018-03-21T12:24:02.471Z,72960
2018-03-21T12:25:12.607Z,67040
2018-03-21T12:26:22.789Z,69408
2018-03-21T12:27:32.919Z,77984
2018-03-21T12:28:43.224Z,78912
2018-03-21T12:29:53.502Z,67328
2018-03-21T12:31:04.650Z,76416
2018-03-21T12:32:14.807Z,84160
2018-03-21T12:33:24.945Z,74720
2018-03-21T12:34:35.094Z,77888
2018-03-21T12:35:45.489Z,51104
2018-03-21T12:36:55.730Z,49920
2018-03-21T12:38:05.886Z,63040
2018-03-21T12:39:16.096Z,74656
2018-03-21T12:40:26.367Z,79840
2018-03-21T12:41:36.562Z,73664
2018-03-21T12:42:46.443Z,71712
2018-03-21T12:43:56.622Z,67936
2018-03-21T12:45:06.840Z,63104
2018-03-21T12:46:16.792Z,65088
2018-03-21T12:47:26.978Z,54912
2018-03-21T12:48:36.548Z,55424
2018-03-21T12:49:46.169Z,77984
2018-03-21T12:50:56.076Z,85504
2018-03-21T12:52:05.818Z,63712
2018-03-21T12:53:15.702Z,52928
2018-03-21T12:54:25.867Z,61600
2018-03-21T12:55:35.756Z,66912
2018-03-21T12:56:45.668Z,67552
2018-03-21T12:57:55.599Z,69152
2018-03-21T12:59:05.779Z,66112
2018-03-21T13:00:15.687Z,64960
2018-03-21T13:01:25.557Z,52960
2018-03-21T13:02:35.482Z,47360
2018-03-21T13:03:45.652Z,56096
2018-03-21T13:04:55.633Z,55872
2018-03-21T13:06:05.925Z,62912
2018-03-21T13:07:15.828Z,66368
2018-03-21T13:08:25.988Z,59104
2018-03-21T13:09:35.868Z,60576
2018-03-21T13:10:45.780Z,68064
2018-03-21T13:11:55.071Z,62592
2018-03-21T13:13:05.297Z,50944
2018-03-21T13:14:14.954Z,50976
2018-03-21T13:15:25.089Z,57408
2018-03-21T13:16:35.271Z,58112
2018-03-21T13:17:45.406Z,56256
2018-03-21T13:18:55.446Z,53024
2018-03-21T13:20:05.697Z,47424
2018-03-21T13:21:15.654Z,46464
2018-03-21T13:22:25.440Z,52896
2018-03-21T13:23:35.636Z,51936
2018-03-21T13:24:45.761Z,53920
2018-03-21T13:25:55.662Z,52256
2018-03-21T13:27:05.556Z,55488
2018-03-21T13:28:15.345Z,59616
2018-03-21T13:29:25.558Z,56864
2018-03-21T13:30:35.460Z,55584
2018-03-21T13:31:44.469Z,56128
2018-03-21T13:32:54.350Z,56640
2018-03-21T13:34:04.534Z,48768
2018-03-21T13:35:14.719Z,48000
2018-03-21T13:36:24.908Z,55424
2018-03-21T13:37:35.135Z,55616
2018-03-21T13:38:45.373Z,55872
2018-03-21T13:39:55.324Z,50912
2018-03-21T13:41:05.486Z,47232
2018-03-21T13:42:16.610Z,50880
2018-03-21T13:43:26.747Z,48000
2018-03-21T13:44:36.898Z,39872
2018-03-21T13:45:46.815Z,40128
2018-03-21T13:46:56.992Z,39072
2018-03-21T13:48:07.147Z,41408
2018-03-21T13:49:17.346Z,46528
2018-03-21T13:50:27.360Z,45280
2018-03-21T13:51:37.531Z,43712
2018-03-21T13:52:47.480Z,39328
2018-03-21T13:53:57.662Z,37472
2018-03-21T13:55:07.887Z,48736
2018-03-21T13:56:18.118Z,57088
2018-03-21T13:57:28.292Z,48128
2018-03-21T13:58:38.458Z,38400
2018-03-21T13:59:48.672Z,46528
2018-03-21T14:00:58.284Z,48416
2018-03-21T14:02:08.226Z,40256
2018-03-21T14:03:18.176Z,46496
2018-03-21T14:04:28.339Z,56864
2018-03-21T14:05:38.492Z,51072
2018-03-21T14:06:48.405Z,44192
2018-03-21T14:07:58.364Z,42720
2018-03-21T14:09:08.535Z,42048
2018-03-21T14:10:18.729Z,47744
2018-03-21T14:11:28.292Z,49984
2018-03-21T14:12:39.422Z,44896
2018-03-21T14:13:49.212Z,48896
2018-03-21T14:14:59.111Z,46912
2018-03-21T14:16:09.294Z,46880
2018-03-21T14:17:19.433Z,49216
2018-03-21T14:18:29.615Z,50336
2018-03-21T14:19:39.760Z,48480
2018-03-21T14:20:49.550Z,50752
2018-03-21T14:21:59.750Z,47136
2018-03-21T14:23:09.333Z,43104
2018-03-21T14:24:19.529Z,45184
2018-03-21T14:25:29.737Z,45568
2018-03-21T14:26:39.608Z,48544
2018-03-21T14:27:49.808Z,44864
2018-03-21T14:29:00.011Z,43264
2018-03-21T14:30:10.240Z,43872
2018-03-21T14:31:21.357Z,41632
2018-03-21T14:32:31.687Z,41792
2018-03-21T14:33:41.684Z,42208
2018-03-21T14:34:51.806Z,39424
2018-03-21T14:36:01.326Z,38880
2018-03-21T14:37:11.306Z,39232
2018-03-21T14:38:21.197Z,34048
2018-03-21T14:39:31.106Z,34656
2018-03-21T14:40:41.264Z,37536
2018-03-21T14:41:51.267Z,36256
2018-03-21T14:43:01.185Z,32928
2018-03-21T14:44:11.342Z,31232
2018-03-21T14:45:21.504Z,27872
2018-03-21T14:46:31.727Z,24288
2018-03-21T14:47:41.383Z,27808
2018-03-21T14:48:50.938Z,30432
2018-03-21T14:50:00.811Z,27968
2018-03-21T14:51:10.717Z,27104
2018-03-21T14:52:20.256Z,25472
2018-03-21T14:53:30.399Z,24448
2018-03-21T14:54:41.525Z,25856
2018-03-21T14:55:51.776Z,25760
2018-03-21T14:57:01.936Z,27264
2018-03-21T14:58:11.839Z,26368
2018-03-21T14:59:21.999Z,24512
2018-03-21T15:00:31.904Z,23648
2018-03-21T15:01:42.091Z,22912
2018-03-21T15:02:52.083Z,22656
2018-03-21T15:04:01.975Z,21824
2018-03-21T15:05:11.917Z,20928
2018-03-21T15:06:21.869Z,20384
2018-03-21T15:07:32.050Z,19520
2018-03-21T15:08:43.173Z,20448
2018-03-21T15:09:53.327Z,21344
2018-03-21T15:11:03.519Z,18848
2018-03-21T15:12:13.403Z,19136
2018-03-21T15:13:23.285Z,20864
2018-03-21T15:14:33.450Z,21856
2018-03-21T15:15:43.630Z,22208
2018-03-21T15:16:53.818Z,20224
2018-03-21T15:18:03.946Z,19648
2018-03-21T15:19:14.360Z,18880
2018-03-21T15:20:24.530Z,18304
2018-03-21T15:21:34.722Z,17568
2018-03-21T15:22:45.870Z,17280
2018-03-21T15:23:56.028Z,15168
2018-03-21T15:25:06.275Z,17248
2018-03-21T15:26:16.572Z,17152
2018-03-21T15:27:26.504Z,18592
2018-03-21T15:28:36.308Z,18080
2018-03-21T15:29:47.623Z,19296
2018-03-21T15:30:57.907Z,18592
2018-03-21T15:32:08.814Z,17056
2018-03-21T15:33:18.600Z,15328
2018-03-21T15:34:28.788Z,15936
2018-03-21T15:35:38.929Z,16864
2018-03-21T15:36:48.579Z,17088
2018-03-21T15:37:58.789Z,16480
2018-03-21T15:39:08.469Z,15840
2018-03-21T15:40:18.742Z,17120
2018-03-21T15:41:28.943Z,18848
2018-03-21T15:42:39.124Z,18176
2018-03-21T15:43:49.297Z,19264
2018-03-21T15:44:59.233Z,17760
2018-03-21T15:46:09.380Z,17376
2018-03-21T15:47:19.598Z,17536
2018-03-21T15:48:29.744Z,17376